Time;durP1;ratioP1;P1;durP2;ratioP2;P2;SDS_P1;SDS_P2;PMS_P1;PMS_P2;Temp;Humidity;BMP_temperature;BMP_pressure;BME280_temperature;BME280_humidity;BME280_pressure;Samples;Min_cycle;Max_cycle;Signal;HPM_P1;HPM_P2
2023/02/04 00:03:04;;;;;;;14.43;7.57;;;;;;;;;;10441302;28;20467;-75
2023/02/04 00:08:04;;;;;;;14.13;7.00;;;;;;;;;;10450098;28;20029;-75
2023/02/04 00:13:04;;;;;;;13.43;7.25;;;;;;;;;;10440203;28;20025;-75
2023/02/04 00:18:06;;;;;;;16.48;8.23;;;;;;;;;;10439237;28;20123;-73
2023/02/04 00:23:06;;;;;;;15.68;8.43;;;;;;;;;;10440324;28;20033;-75
2023/02/04 00:28:06;;;;;;;18.92;8.00;;;;;;;;;;10440300;28;20450;-74
2023/02/04 00:33:06;;;;;;;18.13;8.90;;;;;;;;;;10441302;28;20100;-74
2023/02/04 00:38:07;;;;;;;16.13;8.60;;;;;;;;;;10439656;28;20025;-74
2023/02/04 00:43:07;;;;;;;18.50;8.57;;;;;;;;;;10440023;28;20565;-75
2023/02/04 00:48:07;;;;;;;14.98;8.60;;;;;;;;;;10438935;28;20614;-75
2023/02/04 00:53:08;;;;;;;19.08;9.23;;;;;;;;;;10439899;28;20466;-78
2023/02/04 00:58:09;;;;;;;15.82;9.95;;;;;;;;;;10446128;28;20029;-72
2023/02/04 01:03:09;;;;;;;14.60;8.65;;;;;;;;;;10439507;28;20086;-74
2023/02/04 01:08:10;;;;;;;15.25;9.93;;;;;;;;;;10437460;28;20221;-75
2023/02/04 01:13:10;;;;;;;22.98;8.95;;;;;;;;;;10447981;28;20025;-75
2023/02/04 01:18:11;;;;;;;18.73;9.60;;;;;;;;;;10446069;28;20111;-78
2023/02/04 01:23:11;;;;;;;18.05;10.18;;;;;;;;;;10435326;28;20267;-72
2023/02/04 01:28:11;;;;;;;17.65;9.82;;;;;;;;;;10441396;28;20021;-78
2023/02/04 01:33:12;;;;;;;15.70;8.55;;;;;;;;;;10440826;28;20025;-76
2023/02/04 01:38:12;;;;;;;14.97;8.17;;;;;;;;;;10441404;28;20111;-69
2023/02/04 01:43:12;;;;;;;22.87;10.93;;;;;;;;;;10441093;28;20028;-74
2023/02/04 01:48:19;;;;;;;17.10;9.10;;;;;;;;;;10440726;28;20102;-68
2023/02/04 01:53:20;;;;;;;20.77;10.77;;;;;;;;;;10440971;28;20442;-74
2023/02/04 01:58:20;;;;;;;18.15;9.82;;;;;;;;;;10441121;28;20025;-72
2023/02/04 02:03:20;;;;;;;22.08;10.55;;;;;;;;;;10439301;28;20025;-74
2023/02/04 02:08:21;;;;;;;21.85;10.57;;;;;;;;;;10441668;28;20048;-75
2023/02/04 02:13:21;;;;;;;16.85;9.43;;;;;;;;;;10440523;28;20059;-71
2023/02/04 02:18:24;;;;;;;21.98;10.38;;;;;;;;;;10440219;28;20033;-77
2023/02/04 02:23:42;;;;;;;18.38;9.52;;;;;;;;;;10441763;28;20013;-75
2023/02/04 02:28:43;;;;;;;19.55;9.10;;;;;;;;;;10440166;28;20399;-72
2023/02/04 02:33:43;;;;;;;13.25;8.50;;;;;;;;;;10439840;28;20029;-74
2023/02/04 02:38:44;;;;;;;19.40;10.30;;;;;;;;;;10446599;28;20060;-80
2023/02/04 02:43:44;;;;;;;16.53;9.43;;;;;;;;;;10447793;28;20071;-76
2023/02/04 02:48:44;;;;;;;19.70;10.73;;;;;;;;;;10447560;28;20291;-72
2023/02/04 02:53:46;;;;;;;20.08;9.75;;;;;;;;;;10447280;28;20027;-79
2023/02/04 02:58:46;;;;;;;15.50;9.10;;;;;;;;;;10448112;28;20017;-75
2023/02/04 03:03:49;;;;;;;19.50;9.27;;;;;;;;;;10422521;28;20640;-72
2023/02/04 03:08:50;;;;;;;20.10;9.85;;;;;;;;;;10423771;28;20507;-74
2023/02/04 03:13:51;;;;;;;19.88;9.48;;;;;;;;;;10447340;28;20490;-75
2023/02/04 03:18:51;;;;;;;15.70;8.38;;;;;;;;;;10430841;28;20024;-75
2023/02/04 03:23:55;;;;;;;19.77;7.40;;;;;;;;;;10447869;28;20033;-72
2023/02/04 03:28:55;;;;;;;15.07;8.25;;;;;;;;;;10446378;28;20108;-74
2023/02/04 03:33:56;;;;;;;15.35;8.13;;;;;;;;;;10445987;28;20043;-76
2023/02/04 03:38:56;;;;;;;12.43;6.75;;;;;;;;;;10446907;28;20082;-74
2023/02/04 03:43:56;;;;;;;16.85;7.40;;;;;;;;;;10445643;28;20442;-75
2023/02/04 03:48:56;;;;;;;16.65;8.30;;;;;;;;;;10446890;28;20210;-70
2023/02/04 03:53:57;;;;;;;19.60;8.17;;;;;;;;;;10445557;28;20025;-73
2023/02/04 03:58:57;;;;;;;14.70;8.45;;;;;;;;;;10461879;28;20353;-75
2023/02/04 04:03:57;;;;;;;18.92;8.10;;;;;;;;;;10462639;28;20017;-74
2023/02/04 04:08:57;;;;;;;16.63;8.00;;;;;;;;;;10444760;28;20450;-70
2023/02/04 04:13:58;;;;;;;9.80;5.88;;;;;;;;;;10445015;28;20455;-70
2023/02/04 04:18:58;;;;;;;13.90;7.37;;;;;;;;;;10446061;28;20028;-75
2023/02/04 04:23:58;;;;;;;14.35;7.25;;;;;;;;;;10445720;28;20025;-72
2023/02/04 04:28:59;;;;;;;21.60;7.53;;;;;;;;;;10444096;28;20028;-69
2023/02/04 04:34:00;;;;;;;12.27;6.50;;;;;;;;;;10443519;28;20256;-73
2023/02/04 04:39:01;;;;;;;17.60;7.38;;;;;;;;;;10444350;28;20029;-70
2023/02/04 04:44:01;;;;;;;15.70;6.38;;;;;;;;;;10444832;28;20025;-74
2023/02/04 04:49:01;;;;;;;9.80;5.95;;;;;;;;;;10443329;28;20155;-75
2023/02/04 04:54:02;;;;;;;14.33;7.03;;;;;;;;;;10442950;28;20033;-77
2023/02/04 04:59:05;;;;;;;16.90;7.10;;;;;;;;;;10458804;28;20283;-72
2023/02/04 05:04:06;;;;;;;13.82;7.40;;;;;;;;;;10442910;28;20017;-72
2023/02/04 05:09:08;;;;;;;15.13;7.45;;;;;;;;;;10443056;28;20013;-77
2023/02/04 05:14:08;;;;;;;14.52;7.50;;;;;;;;;;10442013;28;20025;-71
2023/02/04 05:19:08;;;;;;;20.98;9.13;;;;;;;;;;10443028;28;20029;-70
2023/02/04 05:24:09;;;;;;;14.32;8.15;;;;;;;;;;10424689;28;20029;-70
2023/02/04 05:29:09;;;;;;;14.00;7.45;;;;;;;;;;10442559;28;20108;-69
2023/02/04 05:34:09;;;;;;;14.53;7.83;;;;;;;;;;10440699;28;20024;-76
2023/02/04 05:39:10;;;;;;;16.90;8.37;;;;;;;;;;10440719;28;20777;-70
2023/02/04 05:44:10;;;;;;;10.32;5.07;;;;;;;;;;10439839;28;20368;-70
2023/02/04 05:49:10;;;;;;;2.93;2.63;;;;;;;;;;10440725;28;20041;-70
2023/02/04 05:54:18;;;;;;;3.28;1.98;;;;;;;;;;10441132;28;20029;-76
2023/02/04 05:59:18;;;;;;;2.53;1.23;;;;;;;;;;10442356;28;20079;-70
2023/02/04 06:04:18;;;;;;;5.22;1.30;;;;;;;;;;10433195;28;20075;-76
2023/02/04 06:09:18;;;;;;;2.47;1.60;;;;;;;;;;10440526;28;20100;-70
2023/02/04 06:14:19;;;;;;;3.15;1.88;;;;;;;;;;10449288;28;20017;-74
2023/02/04 06:19:19;;;;;;;3.95;1.58;;;;;;;;;;10452990;28;20128;-71
2023/02/04 06:24:19;;;;;;;1.83;1.33;;;;;;;;;;10464016;28;20051;-74
2023/02/04 06:29:19;;;;;;;3.45;1.40;;;;;;;;;;10423215;28;20017;-75
2023/02/04 06:34:20;;;;;;;2.15;1.27;;;;;;;;;;10447664;28;20104;-72
2023/02/04 06:39:20;;;;;;;1.85;1.67;;;;;;;;;;10430871;28;20030;-76
2023/02/04 06:44:20;;;;;;;5.15;1.83;;;;;;;;;;10447309;28;20027;-72
2023/02/04 06:49:21;;;;;;;3.25;2.13;;;;;;;;;;10448200;28;20562;-73
2023/02/04 06:54:21;;;;;;;4.50;1.70;;;;;;;;;;10447072;28;20538;-76
2023/02/04 06:59:22;;;;;;;2.08;1.25;;;;;;;;;;10447455;28;20032;-72
2023/02/04 07:04:22;;;;;;;3.95;1.63;;;;;;;;;;10446821;28;20079;-74
2023/02/04 07:09:26;;;;;;;2.90;1.17;;;;;;;;;;10464436;28;20111;-74
2023/02/04 07:14:26;;;;;;;2.28;1.80;;;;;;;;;;10448218;28;20021;-72
2023/02/04 07:19:26;;;;;;;2.63;1.20;;;;;;;;;;10464450;28;20033;-71
2023/02/04 07:24:27;;;;;;;4.63;1.90;;;;;;;;;;10444242;28;20227;-72
2023/02/04 07:29:27;;;;;;;1.52;1.20;;;;;;;;;;10447710;28;20031;-71
2023/02/04 07:34:27;;;;;;;3.40;2.20;;;;;;;;;;10446092;28;20025;-76
2023/02/04 07:39:28;;;;;;;7.43;2.10;;;;;;;;;;10423207;28;20116;-76
2023/02/04 07:44:28;;;;;;;6.68;1.85;;;;;;;;;;10439158;28;20027;-75
2023/02/04 07:49:29;;;;;;;12.73;2.25;;;;;;;;;;10438245;28;20029;-73
2023/02/04 07:54:29;;;;;;;1.97;1.30;;;;;;;;;;10439478;28;20102;-72
2023/02/04 07:59:29;;;;;;;3.05;1.70;;;;;;;;;;10439254;28;20219;-75
2023/02/04 08:04:29;;;;;;;10.73;2.90;;;;;;;;;;10446077;28;20078;-71
2023/02/04 08:09:30;;;;;;;6.65;2.13;;;;;;;;;;10438144;28;20071;-71
2023/02/04 08:14:30;;;;;;;3.90;1.58;;;;;;;;;;10441642;28;20020;-72
2023/02/04 08:19:30;;;;;;;3.35;1.70;;;;;;;;;;10439352;28;20029;-71
2023/02/04 08:24:30;;;;;;;5.25;1.90;;;;;;;;;;10438242;28;20032;-70
2023/02/04 08:29:30;;;;;;;4.15;2.70;;;;;;;;;;10438504;28;20025;-70
2023/02/04 08:34:31;;;;;;;4.25;1.90;;;;;;;;;;10437040;28;20056;-74
2023/02/04 08:39:31;;;;;;;8.88;2.40;;;;;;;;;;10447219;28;20157;-72
2023/02/04 08:44:32;;;;;;;4.07;1.42;;;;;;;;;;10439654;28;20028;-75
2023/02/04 08:49:32;;;;;;;4.35;1.92;;;;;;;;;;10434116;28;20049;-77
2023/02/04 08:54:33;;;;;;;4.30;1.80;;;;;;;;;;10446844;28;20084;-71
2023/02/04 08:59:33;;;;;;;1.65;1.33;;;;;;;;;;10433863;28;20032;-75
2023/02/04 09:04:33;;;;;;;5.53;1.50;;;;;;;;;;10445302;28;20029;-73
2023/02/04 09:09:33;;;;;;;11.98;1.95;;;;;;;;;;10438903;28;20258;-70
2023/02/04 09:14:34;;;;;;;19.42;2.60;;;;;;;;;;10437489;28;20033;-78
2023/02/04 09:19:34;;;;;;;8.48;1.70;;;;;;;;;;10432985;28;20473;-75
2023/02/04 09:24:34;;;;;;;2.55;0.85;;;;;;;;;;10436558;28;20029;-71
2023/02/04 09:29:34;;;;;;;3.70;1.40;;;;;;;;;;10436595;28;20714;-74
2023/02/04 09:34:35;;;;;;;2.73;1.30;;;;;;;;;;10434708;28;20025;-74
2023/02/04 09:39:35;;;;;;;1.52;0.98;;;;;;;;;;10433341;28;20027;-68
2023/02/04 09:44:36;;;;;;;3.05;0.98;;;;;;;;;;10436093;28;20024;-70
2023/02/04 09:49:36;;;;;;;1.33;0.82;;;;;;;;;;10469384;23;20434;-72
2023/02/04 09:54:38;;;;;;;2.38;1.15;;;;;;;;;;10476825;28;20258;-74
2023/02/04 09:59:39;;;;;;;2.45;1.42;;;;;;;;;;10453797;28;20032;-76
2023/02/04 10:04:39;;;;;;;3.45;1.52;;;;;;;;;;10471390;28;20465;-76
2023/02/04 10:09:39;;;;;;;4.38;1.77;;;;;;;;;;10454744;28;20028;-73
2023/02/04 10:14:39;;;;;;;1.90;1.20;;;;;;;;;;10459276;28;20028;-72
2023/02/04 10:19:40;;;;;;;2.72;1.08;;;;;;;;;;10451381;28;20013;-72
2023/02/04 10:24:40;;;;;;;7.03;2.45;;;;;;;;;;10469583;28;20031;-77
2023/02/04 10:29:41;;;;;;;4.97;1.20;;;;;;;;;;10435411;28;20107;-76
2023/02/04 10:34:42;;;;;;;0.93;0.82;;;;;;;;;;10447188;28;20021;-74
2023/02/04 10:39:42;;;;;;;1.00;0.70;;;;;;;;;;10436333;28;20056;-77
2023/02/04 10:44:45;;;;;;;1.57;1.00;;;;;;;;;;10430637;28;20112;-74
2023/02/04 10:49:58;;;;;;;1.63;0.95;;;;;;;;;;10437815;28;20053;-70
2023/02/04 10:55:00;;;;;;;1.45;1.00;;;;;;;;;;10449880;28;20021;-76
2023/02/04 11:00:01;;;;;;;2.40;1.33;;;;;;;;;;10450046;28;20043;-79
2023/02/04 11:05:02;;;;;;;1.75;1.35;;;;;;;;;;10471437;28;20649;-74
2023/02/04 11:10:03;;;;;;;3.53;1.63;;;;;;;;;;10452206;28;20494;-73
2023/02/04 11:15:03;;;;;;;3.00;1.33;;;;;;;;;;10455926;28;20021;-74
2023/02/04 11:20:29;;;;;;;3.53;1.30;;;;;;;;;;10457655;28;20028;-75
2023/02/04 11:25:33;;;;;;;3.35;1.20;;;;;;;;;;10457589;28;20641;-74
2023/02/04 11:30:34;;;;;;;3.63;1.05;;;;;;;;;;10458573;28;20021;-73
2023/02/04 11:35:34;;;;;;;1.92;1.20;;;;;;;;;;10448581;28;20024;-72
2023/02/04 11:40:35;;;;;;;5.72;1.42;;;;;;;;;;10456871;28;20113;-72
2023/02/04 11:45:37;;;;;;;1.58;1.13;;;;;;;;;;10468852;28;20021;-71
2023/02/04 11:50:37;;;;;;;3.13;1.33;;;;;;;;;;10454708;28;20053;-73
2023/02/04 11:55:45;;;;;;;4.28;1.83;;;;;;;;;;10452324;28;20078;-71
2023/02/04 12:00:45;;;;;;;2.92;1.63;;;;;;;;;;10456381;28;20123;-74
2023/02/04 12:05:48;;;;;;;1.27;1.17;;;;;;;;;;10462369;28;20039;-71
2023/02/04 12:10:49;;;;;;;1.63;1.27;;;;;;;;;;10433850;28;20023;-74
2023/02/04 12:15:56;;;;;;;2.40;0.90;;;;;;;;;;10449402;28;20021;-76
2023/02/04 12:20:57;;;;;;;3.42;1.70;;;;;;;;;;10441474;28;20086;-76
2023/02/04 12:25:57;;;;;;;3.92;2.25;;;;;;;;;;10463366;28;20669;-79
2023/02/04 12:30:58;;;;;;;3.23;1.60;;;;;;;;;;10453130;28;20029;-71
2023/02/04 12:35:58;;;;;;;3.05;1.15;;;;;;;;;;10433769;28;20569;-74
2023/02/04 12:40:58;;;;;;;3.50;1.80;;;;;;;;;;10455986;28;20503;-75
2023/02/04 12:45:58;;;;;;;2.50;1.00;;;;;;;;;;10445685;28;20533;-76
2023/02/04 12:50:59;;;;;;;4.00;1.73;;;;;;;;;;10454612;28;20059;-75
2023/02/04 12:55:59;;;;;;;1.73;1.30;;;;;;;;;;10427702;28;20466;-75
2023/02/04 13:00:59;;;;;;;1.30;1.20;;;;;;;;;;10460962;28;20502;-70
2023/02/04 13:05:59;;;;;;;2.05;1.30;;;;;;;;;;10454297;28;20495;-75
2023/02/04 13:11:00;;;;;;;1.13;0.47;;;;;;;;;;10453019;28;20029;-72
2023/02/04 13:16:00;;;;;;;1.52;1.05;;;;;;;;;;10450058;28;20025;-76
2023/02/04 13:21:00;;;;;;;1.42;0.85;;;;;;;;;;10444698;28;20024;-78
2023/02/04 13:26:01;;;;;;;1.47;0.83;;;;;;;;;;10442434;28;20032;-77
2023/02/04 13:31:01;;;;;;;0.68;0.47;;;;;;;;;;10430967;28;20411;-75
2023/02/04 13:36:01;;;;;;;0.90;0.80;;;;;;;;;;10448236;28;20342;-74
2023/02/04 13:41:01;;;;;;;0.77;0.67;;;;;;;;;;10446534;28;20025;-73
2023/02/04 13:46:04;;;;;;;0.70;0.70;;;;;;;;;;10454083;28;20029;-74
2023/02/04 13:51:05;;;;;;;1.25;0.73;;;;;;;;;;10456394;28;20107;-75
2023/02/04 13:56:05;;;;;;;1.65;1.27;;;;;;;;;;10434282;28;20409;-72
2023/02/04 14:01:05;;;;;;;1.50;1.07;;;;;;;;;;10451968;28;20024;-73
2023/02/04 14:06:06;;;;;;;1.92;1.35;;;;;;;;;;10445394;28;20870;-79
2023/02/04 14:11:06;;;;;;;1.92;1.38;;;;;;;;;;10453861;28;20028;-73
2023/02/04 14:16:08;;;;;;;3.45;1.80;;;;;;;;;;10441835;28;20029;-71
2023/02/04 14:21:08;;;;;;;2.88;1.75;;;;;;;;;;10445561;28;20477;-75
2023/02/04 14:26:08;;;;;;;2.10;1.88;;;;;;;;;;10458036;28;20033;-73
2023/02/04 14:31:08;;;;;;;4.30;2.25;;;;;;;;;;10448066;28;20525;-72
2023/02/04 14:36:09;;;;;;;2.92;2.05;;;;;;;;;;10455959;28;20406;-73
2023/02/04 14:41:10;;;;;;;4.55;1.52;;;;;;;;;;10446717;28;20474;-74
2023/02/04 14:46:10;;;;;;;3.42;1.55;;;;;;;;;;10460280;28;20131;-77
2023/02/04 14:51:11;;;;;;;1.48;1.38;;;;;;;;;;10455144;28;20519;-71
2023/02/04 14:56:11;;;;;;;4.93;1.83;;;;;;;;;;10442092;28;20083;-72
2023/02/04 15:01:11;;;;;;;2.05;1.75;;;;;;;;;;10459248;28;20478;-75
2023/02/04 15:06:12;;;;;;;4.13;2.08;;;;;;;;;;10469459;28;20390;-75
2023/02/04 15:11:12;;;;;;;2.95;1.75;;;;;;;;;;10458512;28;20028;-77
2023/02/04 15:16:13;;;;;;;7.70;2.67;;;;;;;;;;10446347;28;20112;-73
2023/02/04 15:21:13;;;;;;;12.07;3.30;;;;;;;;;;10454341;28;20482;-75
2023/02/04 15:26:14;;;;;;;6.72;2.50;;;;;;;;;;10449883;28;20047;-74
2023/02/04 15:31:14;;;;;;;4.40;2.13;;;;;;;;;;10449508;28;20082;-75
2023/02/04 15:36:14;;;;;;;4.07;2.20;;;;;;;;;;10448814;28;20033;-69
2023/02/04 15:41:15;;;;;;;5.15;1.85;;;;;;;;;;10454946;28;20032;-76
2023/02/04 15:46:15;;;;;;;2.17;1.50;;;;;;;;;;10452655;28;20097;-77
2023/02/04 15:51:15;;;;;;;4.53;1.67;;;;;;;;;;10467513;28;20210;-71
2023/02/04 15:56:16;;;;;;;1.98;1.73;;;;;;;;;;10467066;28;20051;-70
2023/02/04 16:01:16;;;;;;;2.40;1.50;;;;;;;;;;10475806;28;20059;-75
2023/02/04 16:06:17;;;;;;;2.97;2.05;;;;;;;;;;10467169;28;20024;-75
2023/02/04 16:11:17;;;;;;;2.28;2.08;;;;;;;;;;10475764;28;20037;-81
2023/02/04 16:16:18;;;;;;;7.03;2.08;;;;;;;;;;10473126;28;20055;-75
2023/02/04 16:21:18;;;;;;;4.30;2.75;;;;;;;;;;10455088;28;20526;-76
2023/02/04 16:26:18;;;;;;;4.67;2.40;;;;;;;;;;10461563;28;20032;-75
2023/02/04 16:31:19;;;;;;;3.35;2.40;;;;;;;;;;10444492;28;20028;-76
2023/02/04 16:36:19;;;;;;;3.22;2.67;;;;;;;;;;10466247;28;20035;-74
2023/02/04 16:41:19;;;;;;;5.03;3.40;;;;;;;;;;10457793;28;20141;-72
2023/02/04 16:46:20;;;;;;;3.85;2.75;;;;;;;;;;10462385;28;20497;-69
2023/02/04 16:51:20;;;;;;;5.30;3.83;;;;;;;;;;10459233;28;20056;-78
2023/02/04 16:56:20;;;;;;;4.40;4.00;;;;;;;;;;10465612;28;20374;-71
2023/02/04 17:01:21;;;;;;;4.73;3.33;;;;;;;;;;10464834;28;20263;-71
2023/02/04 17:06:21;;;;;;;7.22;4.28;;;;;;;;;;10464774;28;20021;-73
2023/02/04 17:11:30;;;;;;;4.50;3.75;;;;;;;;;;10457623;28;20131;-76
2023/02/04 17:16:30;;;;;;;4.07;3.45;;;;;;;;;;10465645;28;20025;-78
2023/02/04 17:21:31;;;;;;;5.75;3.97;;;;;;;;;;10463496;28;20032;-75
2023/02/04 17:26:36;;;;;;;5.28;3.20;;;;;;;;;;10457572;28;20414;-75
2023/02/04 17:31:36;;;;;;;6.15;3.60;;;;;;;;;;10478401;28;20121;-77
2023/02/04 17:36:37;;;;;;;5.77;3.67;;;;;;;;;;10433235;28;20039;-71
2023/02/04 17:41:37;;;;;;;5.28;3.70;;;;;;;;;;10444551;28;20035;-75
2023/02/04 17:46:37;;;;;;;6.68;3.78;;;;;;;;;;10433536;28;20029;-74
2023/02/04 17:51:38;;;;;;;4.57;3.75;;;;;;;;;;10438964;28;20045;-71
2023/02/04 17:56:38;;;;;;;11.80;4.07;;;;;;;;;;10434210;28;20029;-70
2023/02/04 18:01:39;;;;;;;5.60;3.53;;;;;;;;;;10447873;28;20046;-75
2023/02/04 18:06:40;;;;;;;3.38;2.38;;;;;;;;;;10452714;28;20111;-75
2023/02/04 18:11:40;;;;;;;3.28;2.10;;;;;;;;;;10439732;28;20032;-79
2023/02/04 18:16:41;;;;;;;3.85;3.45;;;;;;;;;;10432423;28;20025;-74
2023/02/04 18:21:41;;;;;;;5.95;2.88;;;;;;;;;;10450798;28;20578;-74
2023/02/04 18:26:43;;;;;;;6.35;3.28;;;;;;;;;;10430010;28;20071;-72
2023/02/04 18:31:48;;;;;;;2.47;2.22;;;;;;;;;;10436031;28;20016;-72
2023/02/04 18:36:49;;;;;;;4.13;2.47;;;;;;;;;;10441523;28;20063;-74
2023/02/04 18:41:50;;;;;;;4.35;2.63;;;;;;;;;;10433666;28;20032;-74
2023/02/04 18:46:50;;;;;;;2.33;1.63;;;;;;;;;;10439640;28;20021;-77
2023/02/04 18:51:50;;;;;;;1.95;1.75;;;;;;;;;;10440688;28;20644;-71
2023/02/04 18:56:52;;;;;;;2.58;2.28;;;;;;;;;;10434281;28;20411;-75
2023/02/04 19:01:52;;;;;;;3.95;1.85;;;;;;;;;;10446466;28;20033;-71
2023/02/04 19:06:54;;;;;;;4.77;2.80;;;;;;;;;;10453160;28;20181;-78
2023/02/04 19:11:57;;;;;;;4.60;2.85;;;;;;;;;;10465810;28;20117;-71
2023/02/04 19:17:15;;;;;;;4.65;3.40;;;;;;;;;;10463874;28;20404;-70
2023/02/04 19:22:23;;;;;;;3.00;2.22;;;;;;;;;;10451237;28;20037;-74
2023/02/04 19:27:27;;;;;;;2.20;1.70;;;;;;;;;;10449831;28;20486;-71
2023/02/04 19:32:30;;;;;;;2.45;2.25;;;;;;;;;;10443217;28;20028;-72
2023/02/04 19:37:36;;;;;;;2.70;2.28;;;;;;;;;;10446602;28;20021;-77
2023/02/04 19:42:39;;;;;;;4.88;2.67;;;;;;;;;;10443001;28;20165;-78
2023/02/04 19:47:41;;;;;;;6.50;2.97;;;;;;;;;;10440999;28;20029;-71
2023/02/04 19:52:43;;;;;;;4.45;2.45;;;;;;;;;;10452321;28;20110;-71
2023/02/04 19:57:44;;;;;;;8.88;2.75;;;;;;;;;;10463738;28;20051;-72
2023/02/04 20:02:44;;;;;;;5.72;1.92;;;;;;;;;;10447417;28;20025;-72
2023/02/04 20:07:45;;;;;;;4.40;2.33;;;;;;;;;;10444043;28;20491;-77
2023/02/04 20:12:45;;;;;;;2.75;2.22;;;;;;;;;;10459460;28;20059;-70
2023/02/04 20:17:46;;;;;;;6.30;2.22;;;;;;;;;;10456850;28;20039;-70
2023/02/04 20:22:48;;;;;;;2.92;2.67;;;;;;;;;;10470831;28;20025;-73
2023/02/04 20:27:53;;;;;;;2.47;1.63;;;;;;;;;;10449041;28;20024;-75
2023/02/04 20:32:58;;;;;;;3.35;2.13;;;;;;;;;;10447839;28;20356;-74
2023/02/04 20:37:59;;;;;;;3.28;1.83;;;;;;;;;;10429057;28;20029;-76
2023/02/04 20:43:00;;;;;;;1.83;1.35;;;;;;;;;;10435773;28;20048;-76
2023/02/04 20:48:23;;;;;;;1.85;1.60;;;;;;;;;;10426655;28;20211;-76
2023/02/04 20:53:34;;;;;;;1.80;1.40;;;;;;;;;;10448409;28;20036;-70
2023/02/04 20:58:40;;;;;;;2.42;1.77;;;;;;;;;;10428347;28;20510;-70
2023/02/04 21:03:40;;;;;;;3.08;1.75;;;;;;;;;;10466306;28;20522;-75
2023/02/04 21:08:43;;;;;;;3.40;1.52;;;;;;;;;;10475344;28;20034;-77
2023/02/04 21:13:43;;;;;;;2.42;2.10;;;;;;;;;;10445565;28;20457;-73
2023/02/04 21:18:46;;;;;;;1.40;1.30;;;;;;;;;;10463769;28;20086;-73
2023/02/04 21:23:46;;;;;;;2.47;1.60;;;;;;;;;;10456944;28;20458;-74
2023/02/04 21:28:46;;;;;;;4.70;3.85;;;;;;;;;;10464800;28;20044;-73
2023/02/04 21:33:47;;;;;;;3.17;2.87;;;;;;;;;;10464069;28;20034;-75
2023/02/04 21:38:47;;;;;;;10.73;3.08;;;;;;;;;;10481503;28;20274;-75
2023/02/04 21:43:48;;;;;;;2.85;2.65;;;;;;;;;;10464038;28;20111;-74
2023/02/04 21:48:48;;;;;;;1.98;1.83;;;;;;;;;;10461379;28;20037;-73
2023/02/04 21:53:48;;;;;;;2.97;2.08;;;;;;;;;;10442916;28;20099;-77
2023/02/04 21:58:48;;;;;;;3.92;2.45;;;;;;;;;;10447931;28;20031;-76
2023/02/04 22:03:49;;;;;;;4.45;3.05;;;;;;;;;;10483075;28;20013;-73
2023/02/04 22:08:49;;;;;;;2.75;2.40;;;;;;;;;;10465409;28;20036;-79
2023/02/04 22:13:49;;;;;;;5.80;2.95;;;;;;;;;;10465391;28;20026;-78
2023/02/04 22:18:50;;;;;;;3.78;3.47;;;;;;;;;;10465032;28;20017;-75
2023/02/04 22:23:50;;;;;;;4.18;2.88;;;;;;;;;;10464939;28;20024;-78
2023/02/04 22:28:50;;;;;;;4.47;4.05;;;;;;;;;;10460257;28;20021;-78
2023/02/04 22:33:50;;;;;;;3.22;2.90;;;;;;;;;;10482966;28;20012;-74
2023/02/04 22:38:51;;;;;;;5.63;2.90;;;;;;;;;;10464978;28;20023;-70
2023/02/04 22:43:51;;;;;;;3.65;2.70;;;;;;;;;;10452932;28;20020;-76
2023/02/04 22:48:51;;;;;;;2.85;2.55;;;;;;;;;;10443560;28;20069;-74
2023/02/04 22:53:51;;;;;;;4.45;3.00;;;;;;;;;;10438283;28;20098;-76
2023/02/04 22:58:52;;;;;;;3.83;3.13;;;;;;;;;;10472279;28;20017;-72
2023/02/04 23:03:52;;;;;;;3.27;2.73;;;;;;;;;;10472501;28;20380;-74
2023/02/04 23:08:53;;;;;;;4.05;2.75;;;;;;;;;;10472073;28;20573;-77
2023/02/04 23:13:54;;;;;;;4.78;2.70;;;;;;;;;;10455183;28;20094;-76
2023/02/04 23:18:54;;;;;;;3.03;2.55;;;;;;;;;;10445356;28;20044;-71
2023/02/04 23:23:55;;;;;;;4.30;2.60;;;;;;;;;;10483198;28;20027;-75
2023/02/04 23:28:56;;;;;;;4.07;2.78;;;;;;;;;;10470985;28;20097;-75
2023/02/04 23:33:57;;;;;;;5.13;2.95;;;;;;;;;;10470714;28;20040;-75
2023/02/04 23:38:58;;;;;;;8.63;3.88;;;;;;;;;;10470779;28;20577;-75
2023/02/04 23:43:58;;;;;;;4.07;3.15;;;;;;;;;;10470765;28;20051;-77
2023/02/04 23:48:58;;;;;;;5.22;3.70;;;;;;;;;;10470531;28;20094;-78
2023/02/04 23:53:59;;;;;;;4.53;3.50;;;;;;;;;;10469895;28;20027;-74
2023/02/04 23:59:00;;;;;;;5.77;4.00;;;;;;;;;;10470045;28;20487;-76
